Zhengding, China
Current Conditions -  °F | °C
As of 6:00 PM on Wednesday 22 Oct 2014 (Local Time) from ZBSJ Reporting Station
Haze Haze  
Wind Chill: 59°   Ceiling: Unl
Heat Index: 59°   Visibility: 2.1mi
Dew Point: 50°   Wind: 7mph
Humidity: 72%   Direction: 50°NE
Pressure: 30.12"   Gusts: NA
Location:  38.14°N, 114.56°E
Report Text: ZBSJ 221000Z 05003MPS 3500 HZ NSC 15/10 Q1020 NOSIG
Loading
Personal Weather Stations






























Interactive Weather Map
Tropical Storm Tracking
New forecast layout! Learn more

10-Day Weather Forecast

Advertisements
Track Severe Weather on mobile